Lazbuddie, Texas
Current Conditions -  °F | °C
As of 3:15 AM on Friday 19 Dec 2014 (Local Time) from KCVN Reporting Station
Overcast Overcast  
Wind Chill: 29°   Ceiling: 500
Heat Index: 36°   Visibility: 8mi
Dew Point: 32°   Wind: 8mph
Humidity: 87%   Direction: 120°ESE
Pressure: 30.1"   Gusts: NA
Location:  34.39°N, 102.61°W
Report Text: KCVN 190915Z 12007KT 8SM OVC005 02/00 A3010 RMK AO1
Loading
Personal Weather Stations






























Interactive Weather Map New forecast layout! Learn more

10-Day Weather Forecast

Advertisements
Track Severe Weather on mobile